createdAt,value
2022-11-06T08:20:35.145Z,9.83
2022-11-06T08:21:35.197Z,9.42
2022-11-06T08:22:35.315Z,9.22
2022-11-06T08:23:35.430Z,9.14
2022-11-06T08:24:35.610Z,9.12
2022-11-06T08:25:35.657Z,9.13
2022-11-06T08:26:35.778Z,9.14
2022-11-06T08:27:35.895Z,9.16
2022-11-06T08:28:36.019Z,9.17
2022-11-06T08:29:41.046Z,9.18
2022-11-06T08:30:37.254Z,9.18
2022-11-06T08:31:36.355Z,9.18
2022-11-06T08:32:36.464Z,9.18
2022-11-06T08:33:36.587Z,9.17
2022-11-06T08:34:36.727Z,9.18
2022-11-06T08:35:36.790Z,9.19
2022-11-06T08:36:36.903Z,9.22
2022-11-06T08:37:37.016Z,9.25
2022-11-06T08:38:37.135Z,9.27
2022-11-06T08:39:37.271Z,9.30
2022-11-06T08:40:37.364Z,9.32
2022-11-06T08:41:37.462Z,9.35
2022-11-06T08:42:37.572Z,9.37
2022-11-06T08:43:37.725Z,9.38
2022-11-06T08:44:37.783Z,9.39
2022-11-06T08:45:38.014Z,9.42
2022-11-06T08:46:38.062Z,9.45
2022-11-06T08:47:38.181Z,9.50
2022-11-06T08:48:38.345Z,9.56
2022-11-06T08:49:38.451Z,9.63
2022-11-06T08:50:38.605Z,9.69
2022-11-06T08:51:38.700Z,9.74
2022-11-06T08:52:38.832Z,9.77
2022-11-06T08:53:39.046Z,9.78
2022-11-06T08:54:39.103Z,9.79
2022-11-06T08:55:39.229Z,9.80
2022-11-06T08:56:39.369Z,9.82
2022-11-06T08:57:39.530Z,9.84
2022-11-06T08:58:39.660Z,9.85
2022-11-06T08:59:39.768Z,9.86
2022-11-06T09:00:40.050Z,9.89
2022-11-06T09:01:40.128Z,9.91
2022-11-06T09:02:40.195Z,9.93
2022-11-06T09:03:40.347Z,9.95
2022-11-06T09:04:41.596Z,10.00
2022-11-06T09:05:40.548Z,10.03
2022-11-06T09:06:40.686Z,10.07
2022-11-06T09:07:40.796Z,10.10
2022-11-06T09:08:40.946Z,10.13
2022-11-06T09:09:40.985Z,10.15
2022-11-06T09:10:42.119Z,10.15
2022-11-06T09:11:41.255Z,10.17
2022-11-06T09:12:41.376Z,10.20
2022-11-06T09:13:41.496Z,10.24
2022-11-06T09:14:41.610Z,10.29
2022-11-06T09:15:41.746Z,10.36
2022-11-06T09:16:41.928Z,10.45
2022-11-06T09:17:42.002Z,10.54
2022-11-06T09:18:42.144Z,10.62
2022-11-06T09:19:42.233Z,10.66
2022-11-06T09:20:42.384Z,10.68
2022-11-06T09:21:42.464Z,10.71
2022-11-06T09:22:42.628Z,10.75
2022-11-06T09:23:42.755Z,10.80
2022-11-06T09:25:02.744Z,10.86
2022-11-06T09:25:44.112Z,10.92
2022-11-06T09:26:43.137Z,10.98
2022-11-06T09:27:43.259Z,11.03
2022-11-06T09:28:43.402Z,11.09
2022-11-06T09:29:43.484Z,11.14
2022-11-06T09:30:43.622Z,11.19
2022-11-06T09:31:43.774Z,11.23
2022-11-06T09:32:43.887Z,11.24
2022-11-06T09:33:44.012Z,11.26
2022-11-06T09:34:44.119Z,11.31
2022-11-06T09:35:44.311Z,11.35
2022-11-06T09:36:44.399Z,11.38
2022-11-06T09:37:44.520Z,11.38
2022-11-06T09:38:44.650Z,11.37
2022-11-06T09:39:44.742Z,11.39
2022-11-06T09:40:44.899Z,11.43
2022-11-06T09:41:45.014Z,11.48
2022-11-06T09:42:45.164Z,11.51
2022-11-06T09:44:46.343Z,11.54
2022-11-06T09:45:45.587Z,11.55
2022-11-06T09:46:45.614Z,11.54
2022-11-06T09:47:45.748Z,11.51
2022-11-06T09:48:46.008Z,11.46
2022-11-06T09:49:46.038Z,11.43
2022-11-06T09:50:46.209Z,11.44
2022-11-06T09:51:46.341Z,11.43
2022-11-06T09:52:46.448Z,11.43
2022-11-06T09:53:46.617Z,11.44
2022-11-06T09:54:49.674Z,11.46
2022-11-06T09:55:47.856Z,11.48
2022-11-06T09:56:47.009Z,11.49
2022-11-06T09:57:47.138Z,11.49
2022-11-06T09:58:47.319Z,11.50
2022-11-06T09:59:47.419Z,11.51
2022-11-06T10:00:47.576Z,11.51
2022-11-06T10:01:47.780Z,11.51
2022-11-06T10:02:47.877Z,11.52
2022-11-06T10:03:47.948Z,11.55
2022-11-06T10:04:48.067Z,11.58
2022-11-06T10:05:48.203Z,11.62
2022-11-06T10:06:48.324Z,11.67
2022-11-06T10:07:48.424Z,11.72
2022-11-06T10:08:48.531Z,11.77
2022-11-06T10:09:48.627Z,11.79
2022-11-06T10:10:48.800Z,11.79
2022-11-06T10:11:48.912Z,11.80
2022-11-06T10:12:49.025Z,11.78
2022-11-06T10:13:49.176Z,11.75
2022-11-06T10:14:49.267Z,11.74
2022-11-06T10:15:49.368Z,11.75
2022-11-06T10:16:49.476Z,11.77
2022-11-06T10:17:49.556Z,11.79
2022-11-06T10:18:49.736Z,11.81
2022-11-06T10:19:49.825Z,11.82
2022-11-06T10:20:49.997Z,11.83
2022-11-06T10:21:50.114Z,11.82
2022-11-06T10:22:50.213Z,11.81
2022-11-06T10:23:50.363Z,11.81
2022-11-06T10:24:50.473Z,11.82
2022-11-06T10:25:50.602Z,11.84
2022-11-06T10:26:50.715Z,11.86
2022-11-06T10:27:50.813Z,11.87
2022-11-06T10:28:50.954Z,11.85
2022-11-06T10:29:51.042Z,11.82
2022-11-06T10:30:51.161Z,11.80
2022-11-06T10:31:51.250Z,11.79
2022-11-06T10:32:51.375Z,11.79
2022-11-06T10:33:51.502Z,11.79
2022-11-06T10:34:51.608Z,11.78
2022-11-06T10:35:51.716Z,11.79
2022-11-06T10:36:51.891Z,11.80
2022-11-06T10:37:52.004Z,11.78
2022-11-06T10:38:52.111Z,11.74
2022-11-06T10:39:52.241Z,11.73
2022-11-06T10:40:52.414Z,11.70
2022-11-06T10:41:52.491Z,11.69
2022-11-06T10:42:52.590Z,11.69
2022-11-06T10:43:52.745Z,11.70
2022-11-06T10:44:52.871Z,11.73
2022-11-06T10:45:53.561Z,11.76
2022-11-06T10:46:53.086Z,11.76
2022-11-06T10:47:53.169Z,11.76
2022-11-06T10:48:53.338Z,11.77
2022-11-06T10:49:53.438Z,11.80
2022-11-06T10:50:53.651Z,11.85
2022-11-06T10:51:53.864Z,11.91
2022-11-06T10:52:53.854Z,11.98
2022-11-06T10:53:54.021Z,12.03
2022-11-06T10:54:54.108Z,12.08
2022-11-06T10:55:54.210Z,12.11
2022-11-06T10:56:54.336Z,12.11
2022-11-06T10:57:54.435Z,12.12
2022-11-06T10:58:54.585Z,12.15
2022-11-06T10:59:54.726Z,12.18
2022-11-06T11:00:54.887Z,12.21
2022-11-06T11:01:55.058Z,12.24
2022-11-06T11:02:55.058Z,12.26
2022-11-06T11:03:55.189Z,12.29
2022-11-06T11:04:57.968Z,12.30
2022-11-06T11:05:55.484Z,12.30
2022-11-06T11:06:55.518Z,12.30
2022-11-06T11:07:55.676Z,12.29
2022-11-06T11:08:55.746Z,12.31
2022-11-06T11:09:55.854Z,12.34
2022-11-06T11:11:04.922Z,12.37
2022-11-06T11:11:57.044Z,12.38
2022-11-06T11:12:56.186Z,12.37
2022-11-06T11:13:56.381Z,12.38
2022-11-06T11:14:56.437Z,12.42
2022-11-06T11:15:56.548Z,12.47
2022-11-06T11:16:56.662Z,12.52
2022-11-06T11:17:56.782Z,12.55
2022-11-06T11:18:56.908Z,12.55
2022-11-06T11:19:57.014Z,12.55
2022-11-06T11:20:57.123Z,12.53
2022-11-06T11:21:57.237Z,12.53
2022-11-06T11:22:57.359Z,12.57
2022-11-06T11:23:57.484Z,12.59
2022-11-06T11:24:57.594Z,12.61
2022-11-06T11:25:57.719Z,12.65
2022-11-06T11:26:57.871Z,12.68
2022-11-06T11:28:03.640Z,12.71
2022-11-06T11:28:59.097Z,12.75
2022-11-06T11:29:58.181Z,12.77
2022-11-06T11:30:58.285Z,12.77
2022-11-06T11:31:58.387Z,12.71
2022-11-06T11:32:58.532Z,12.62
2022-11-06T11:33:58.702Z,12.54
2022-11-06T11:34:58.812Z,12.49
2022-11-06T11:35:58.921Z,12.42
2022-11-06T11:36:59.041Z,12.34
2022-11-06T11:37:59.142Z,12.27
2022-11-06T11:38:59.252Z,12.21
2022-11-06T11:39:59.372Z,12.15
2022-11-06T11:40:59.489Z,12.12
2022-11-06T11:41:59.586Z,12.10
2022-11-06T11:42:59.749Z,12.10
2022-11-06T11:43:59.899Z,12.13
2022-11-06T11:45:00.004Z,12.17
2022-11-06T11:46:00.202Z,12.22
2022-11-06T11:47:00.289Z,12.24
2022-11-06T11:48:00.390Z,12.22
2022-11-06T11:49:00.527Z,12.19
2022-11-06T11:50:00.640Z,12.17
2022-11-06T11:51:00.771Z,12.19
2022-11-06T11:52:00.879Z,12.21
2022-11-06T11:53:05.631Z,12.24
2022-11-06T11:54:02.179Z,12.26
2022-11-06T11:55:01.258Z,12.28
2022-11-06T11:56:01.368Z,12.28
2022-11-06T11:57:06.190Z,12.29
2022-11-06T11:58:02.549Z,12.30
2022-11-06T11:59:01.688Z,12.30
2022-11-06T12:00:01.797Z,12.28
2022-11-06T12:01:01.878Z,12.28
2022-11-06T12:02:02.069Z,12.28
2022-11-06T12:03:02.184Z,12.29
2022-11-06T12:04:02.268Z,12.31
2022-11-06T12:05:02.345Z,12.34
2022-11-06T12:06:02.547Z,12.36
2022-11-06T12:07:02.577Z,12.38
2022-11-06T12:08:02.716Z,12.39
2022-11-06T12:09:02.890Z,12.39
2022-11-06T12:10:02.969Z,12.37
2022-11-06T12:11:03.098Z,12.35
2022-11-06T12:12:03.235Z,12.36
2022-11-06T12:13:03.384Z,12.38
2022-11-06T12:14:03.505Z,12.39
2022-11-06T12:15:03.643Z,12.40
2022-11-06T12:16:03.715Z,12.37
2022-11-06T12:17:03.853Z,12.31
2022-11-06T12:18:03.987Z,12.24
2022-11-06T12:19:04.183Z,12.20
2022-11-06T12:20:04.290Z,12.18
2022-11-06T12:21:04.401Z,12.16
2022-11-06T12:22:04.549Z,12.15
2022-11-06T12:23:04.614Z,12.14
2022-11-06T12:24:04.793Z,12.13
2022-11-06T12:25:04.894Z,12.12
2022-11-06T12:26:05.048Z,12.12
2022-11-06T12:27:05.153Z,12.10
2022-11-06T12:28:05.264Z,12.09
2022-11-06T12:29:05.548Z,12.09
2022-11-06T12:30:05.500Z,12.08
2022-11-06T12:31:05.652Z,12.05
2022-11-06T12:32:05.788Z,12.03
2022-11-06T12:33:05.893Z,12.01
2022-11-06T12:34:07.511Z,12.01
2022-11-06T12:35:06.175Z,12.00
2022-11-06T12:36:06.252Z,11.99
2022-11-06T12:37:06.409Z,11.98
2022-11-06T12:38:06.505Z,11.98
2022-11-06T12:39:06.656Z,11.93
2022-11-06T12:40:06.788Z,11.88
2022-11-06T12:41:06.899Z,11.84
2022-11-06T12:42:07.024Z,11.82
2022-11-06T12:43:07.118Z,11.79
2022-11-06T12:44:07.405Z,11.78
2022-11-06T12:45:07.438Z,11.78
2022-11-06T12:46:07.588Z,11.77
2022-11-06T12:47:07.679Z,11.75
2022-11-06T12:48:07.824Z,11.75
2022-11-06T12:49:07.909Z,11.75
2022-11-06T12:50:08.076Z,11.74
2022-11-06T12:51:08.197Z,11.74
2022-11-06T12:52:08.310Z,11.75
2022-11-06T12:53:08.424Z,11.74
2022-11-06T12:54:08.526Z,11.74
2022-11-06T12:55:08.660Z,11.77
2022-11-06T12:56:08.748Z,11.81
2022-11-06T12:57:08.865Z,11.84
2022-11-06T12:58:08.982Z,11.86
2022-11-06T12:59:09.174Z,11.88
2022-11-06T13:00:09.161Z,11.89
2022-11-06T13:01:09.345Z,11.89
2022-11-06T13:02:09.609Z,11.89
2022-11-06T13:03:09.574Z,11.89
2022-11-06T13:04:09.744Z,11.89
2022-11-06T13:05:09.850Z,11.89
2022-11-06T13:06:13.208Z,11.89
2022-11-06T13:07:10.152Z,11.89
2022-11-06T13:08:10.342Z,11.90
2022-11-06T13:09:10.587Z,11.92
2022-11-06T13:10:10.524Z,11.93
2022-11-06T13:11:10.675Z,11.93
2022-11-06T13:12:10.823Z,11.92
2022-11-06T13:13:15.027Z,11.91
2022-11-06T13:14:11.071Z,11.90
2022-11-06T13:15:11.233Z,11.87
2022-11-06T13:16:11.306Z,11.84
2022-11-06T13:17:11.414Z,11.80
2022-11-06T13:18:11.910Z,11.76
2022-11-06T13:19:11.701Z,11.73
2022-11-06T13:20:11.840Z,11.71
2022-11-06T13:21:11.864Z,11.70
2022-11-06T13:22:11.999Z,11.69
2022-11-06T13:23:12.099Z,11.68
2022-11-06T13:24:12.192Z,11.66
2022-11-06T13:25:12.397Z,11.66
2022-11-06T13:26:12.521Z,11.66
2022-11-06T13:27:12.561Z,11.67
2022-11-06T13:28:13.103Z,11.67
2022-11-06T13:29:12.812Z,11.68
2022-11-06T13:30:12.899Z,11.68
2022-11-06T13:31:13.050Z,11.67
2022-11-06T13:32:13.199Z,11.65
2022-11-06T13:33:13.332Z,11.64
2022-11-06T13:34:13.486Z,11.63
2022-11-06T13:35:13.562Z,11.60
2022-11-06T13:36:13.677Z,11.56
2022-11-06T13:37:13.784Z,11.53
2022-11-06T13:38:14.153Z,11.51
2022-11-06T13:39:14.040Z,11.50
2022-11-06T13:40:14.148Z,11.50
2022-11-06T13:41:14.255Z,11.49
2022-11-06T13:42:14.347Z,11.48
2022-11-06T13:43:14.440Z,11.46
2022-11-06T13:44:14.616Z,11.45
2022-11-06T13:45:14.660Z,11.44
2022-11-06T13:46:16.370Z,11.44
2022-11-06T13:47:14.900Z,11.44
2022-11-06T13:48:15.329Z,11.44
2022-11-06T13:49:15.116Z,11.44
2022-11-06T13:50:15.244Z,11.45
2022-11-06T13:51:15.413Z,11.44
2022-11-06T13:52:15.469Z,11.43
2022-11-06T13:53:15.587Z,11.42
2022-11-06T13:54:15.853Z,11.40
2022-11-06T13:55:15.826Z,11.36
2022-11-06T13:56:16.061Z,11.31
2022-11-06T13:57:16.109Z,11.28
2022-11-06T13:58:16.548Z,11.26
2022-11-06T13:59:16.410Z,11.25
2022-11-06T14:00:16.493Z,11.23
2022-11-06T14:01:16.617Z,11.20
2022-11-06T14:02:16.950Z,11.18
2022-11-06T14:03:16.905Z,11.17
2022-11-06T14:04:17.012Z,11.16
2022-11-06T14:05:17.103Z,11.16
2022-11-06T14:06:17.233Z,11.15
2022-11-06T14:07:17.350Z,11.15
2022-11-06T14:08:17.452Z,11.15
2022-11-06T14:09:17.600Z,11.14
2022-11-06T14:10:17.652Z,11.14
2022-11-06T14:11:17.761Z,11.13
2022-11-06T14:12:17.881Z,11.10
2022-11-06T14:13:18.000Z,11.07
2022-11-06T14:14:18.153Z,11.02
2022-11-06T14:15:18.252Z,10.96
2022-11-06T14:16:18.355Z,10.91
2022-11-06T14:17:18.460Z,10.87
2022-11-06T14:18:18.581Z,10.82
2022-11-06T14:19:18.709Z,10.78
2022-11-06T14:20:18.835Z,10.76
2022-11-06T14:21:18.994Z,10.74
2022-11-06T14:22:19.078Z,10.71
2022-11-06T14:23:19.192Z,10.68
2022-11-06T14:24:19.339Z,10.65
2022-11-06T14:25:19.440Z,10.63
2022-11-06T14:26:19.667Z,10.61
2022-11-06T14:27:19.647Z,10.58
2022-11-06T14:28:19.826Z,10.56
2022-11-06T14:29:20.007Z,10.53
2022-11-06T14:30:20.058Z,10.50
2022-11-06T14:31:26.235Z,10.45
2022-11-06T14:32:21.369Z,10.41
2022-11-06T14:33:20.427Z,10.37
2022-11-06T14:34:20.671Z,10.32
2022-11-06T14:35:20.717Z,10.28
2022-11-06T14:36:20.838Z,10.24
2022-11-06T14:37:20.962Z,10.20
2022-11-06T14:38:21.106Z,10.16
2022-11-06T14:39:21.226Z,10.12
2022-11-06T14:40:21.317Z,10.07
2022-11-06T14:41:21.475Z,10.02
2022-11-06T14:42:25.804Z,9.97
2022-11-06T14:43:22.696Z,9.92
2022-11-06T14:44:21.897Z,9.88
2022-11-06T14:45:21.940Z,9.85
2022-11-06T14:46:22.741Z,9.81
2022-11-06T14:47:22.206Z,9.78
2022-11-06T14:48:22.549Z,9.74
2022-11-06T14:49:22.504Z,9.72
2022-11-06T14:50:22.683Z,9.68
2022-11-06T14:51:22.736Z,9.64
2022-11-06T14:52:22.867Z,9.60
2022-11-06T14:53:23.021Z,9.55
2022-11-06T14:54:23.155Z,9.51
2022-11-06T14:55:23.245Z,9.48
2022-11-06T14:56:23.396Z,9.44
2022-11-06T14:57:23.475Z,9.42
2022-11-06T14:58:23.627Z,9.39
2022-11-06T14:59:23.799Z,9.36
2022-11-06T15:00:28.316Z,9.33
2022-11-06T15:01:24.088Z,9.31
2022-11-06T15:02:25.335Z,9.28
2022-11-06T15:03:24.286Z,9.25
2022-11-06T15:04:24.490Z,9.22
2022-11-06T15:05:24.529Z,9.21
2022-11-06T15:06:24.717Z,9.20
2022-11-06T15:07:44.727Z,9.19
2022-11-06T15:08:25.963Z,9.16
2022-11-06T15:09:25.110Z,9.12
2022-11-06T15:10:25.209Z,9.08
2022-11-06T15:11:25.354Z,9.04
2022-11-06T15:12:25.430Z,8.99
2022-11-06T15:13:25.580Z,8.94
2022-11-06T15:14:25.751Z,8.89
2022-11-06T15:15:25.859Z,8.83
2022-11-06T15:16:25.999Z,8.79
2022-11-06T15:17:26.130Z,8.74
2022-11-06T15:18:26.269Z,8.69
2022-11-06T15:19:26.558Z,8.65
2022-11-06T15:20:26.616Z,8.61
2022-11-06T15:21:26.667Z,8.57
2022-11-06T15:22:26.797Z,8.54
2022-11-06T15:23:27.009Z,8.53
2022-11-06T15:24:27.116Z,8.52
2022-11-06T15:25:27.352Z,8.52
2022-11-06T15:26:27.349Z,8.52
2022-11-06T15:27:27.489Z,8.52
2022-11-06T15:28:27.625Z,8.54
2022-11-06T15:29:27.904Z,8.55
2022-11-06T15:30:27.890Z,8.56
2022-11-06T15:31:28.047Z,8.56
2022-11-06T15:32:28.147Z,8.56
2022-11-06T15:33:28.285Z,8.57
2022-11-06T15:34:28.485Z,8.59
2022-11-06T15:35:28.605Z,8.61
2022-11-06T15:36:28.704Z,8.63
2022-11-06T15:37:28.813Z,8.64
2022-11-06T15:38:28.962Z,8.65
2022-11-06T15:39:29.093Z,8.66
2022-11-06T15:40:29.241Z,8.67
2022-11-06T15:41:29.385Z,8.68
2022-11-06T15:42:29.529Z,8.68
2022-11-06T15:43:29.661Z,8.68
2022-11-06T15:44:29.845Z,8.70
2022-11-06T15:45:29.946Z,8.71
2022-11-06T15:46:30.094Z,8.72
2022-11-06T15:47:30.201Z,8.73
2022-11-06T15:48:30.344Z,8.74
2022-11-06T15:49:30.492Z,8.74
2022-11-06T15:50:30.599Z,8.74
2022-11-06T15:51:30.741Z,8.74
2022-11-06T15:52:30.889Z,8.74
2022-11-06T15:53:31.032Z,8.75
2022-11-06T15:54:31.184Z,8.75
2022-11-06T15:55:31.321Z,8.75
2022-11-06T15:56:31.434Z,8.74
2022-11-06T15:57:31.541Z,8.74
2022-11-06T15:58:31.672Z,8.74
2022-11-06T15:59:31.799Z,8.74
2022-11-06T16:00:31.969Z,8.74
2022-11-06T16:01:32.197Z,8.74
2022-11-06T16:02:32.285Z,8.75
2022-11-06T16:03:32.364Z,8.75
2022-11-06T16:04:32.455Z,8.75
2022-11-06T16:05:32.666Z,8.75
2022-11-06T16:06:32.705Z,8.74
2022-11-06T16:07:32.846Z,8.73
2022-11-06T16:08:32.991Z,8.70
2022-11-06T16:09:33.127Z,8.69
2022-11-06T16:10:33.297Z,8.67
2022-11-06T16:11:33.396Z,8.67
2022-11-06T16:12:33.534Z,8.66
2022-11-06T16:13:33.666Z,8.66
2022-11-06T16:14:33.838Z,8.65
2022-11-06T16:15:33.935Z,8.63
2022-11-06T16:16:34.086Z,8.62
2022-11-06T16:17:34.214Z,8.61
2022-11-06T16:18:34.354Z,8.60
2022-11-06T16:19:34.555Z,8.60
2022-11-06T16:20:34.644Z,8.61
2022-11-06T16:21:34.784Z,8.61
2022-11-06T16:22:34.915Z,8.61
2022-11-06T16:23:38.991Z,8.62
2022-11-06T16:24:35.251Z,8.61
2022-11-06T16:25:35.285Z,8.61
2022-11-06T16:26:35.424Z,8.61
2022-11-06T16:27:35.568Z,8.61
2022-11-06T16:28:35.736Z,8.61
2022-11-06T16:29:35.936Z,8.61
2022-11-06T16:30:35.951Z,8.61
2022-11-06T16:31:36.082Z,8.62
2022-11-06T16:32:36.220Z,8.64
2022-11-06T16:33:36.362Z,8.65
2022-11-06T16:34:36.562Z,8.65
2022-11-06T16:35:36.630Z,8.65
2022-11-06T16:36:36.804Z,8.65
2022-11-06T16:37:36.925Z,8.64
2022-11-06T16:38:41.953Z,8.63
2022-11-06T16:39:48.980Z,8.61
2022-11-06T16:40:38.270Z,8.58
2022-11-06T16:41:38.398Z,8.55
2022-11-06T16:42:37.538Z,8.53
2022-11-06T16:43:37.735Z,8.52
2022-11-06T16:44:37.798Z,8.51
2022-11-06T16:45:38.986Z,8.50
2022-11-06T16:46:38.088Z,8.48
2022-11-06T16:47:38.188Z,8.45
2022-11-06T16:48:38.346Z,8.42
2022-11-06T16:49:38.504Z,8.40
2022-11-06T16:50:38.559Z,8.38
2022-11-06T16:51:38.665Z,8.36
2022-11-06T16:52:38.812Z,8.36
2022-11-06T16:53:38.937Z,8.36
2022-11-06T16:54:39.076Z,8.36
2022-11-06T16:55:39.229Z,8.35
2022-11-06T16:56:39.350Z,8.34
2022-11-06T16:57:39.496Z,8.34
2022-11-06T16:58:39.642Z,8.33
2022-11-06T16:59:39.784Z,8.34
2022-11-06T17:00:39.991Z,8.34
2022-11-06T17:01:40.149Z,8.34
2022-11-06T17:02:40.320Z,8.34
2022-11-06T17:03:40.326Z,8.35
2022-11-06T17:04:40.466Z,8.35
2022-11-06T17:05:40.713Z,8.36
2022-11-06T17:06:40.772Z,8.37
2022-11-06T17:07:40.904Z,8.38
2022-11-06T17:08:41.009Z,8.39
2022-11-06T17:09:41.152Z,8.41
2022-11-06T17:10:41.292Z,8.42
2022-11-06T17:11:41.399Z,8.43
2022-11-06T17:12:41.502Z,8.42
2022-11-06T17:13:41.695Z,8.42
2022-11-06T17:14:41.773Z,8.42
2022-11-06T17:15:41.949Z,8.43
2022-11-06T17:16:42.051Z,8.45
2022-11-06T17:17:42.191Z,8.46
2022-11-06T17:18:42.339Z,8.47
2022-11-06T17:19:42.479Z,8.47
2022-11-06T17:20:42.639Z,8.48
2022-11-06T17:21:42.779Z,8.49
2022-11-06T17:22:42.920Z,8.49
2022-11-06T17:23:43.014Z,8.49
2022-11-06T17:24:43.184Z,8.50
2022-11-06T17:25:43.351Z,8.52
2022-11-06T17:26:43.422Z,8.53
2022-11-06T17:27:43.507Z,8.53
2022-11-06T17:28:43.655Z,8.53
2022-11-06T17:29:43.813Z,8.52
2022-11-06T17:30:43.967Z,8.51
2022-11-06T17:31:44.066Z,8.50
2022-11-06T17:32:44.216Z,8.48
2022-11-06T17:33:44.305Z,8.46
2022-11-06T17:34:44.446Z,8.46
2022-11-06T17:35:44.642Z,8.45
2022-11-06T17:36:44.713Z,8.44
2022-11-06T17:37:44.851Z,8.43
2022-11-06T17:38:44.978Z,8.42
2022-11-06T17:39:45.145Z,8.42
2022-11-06T17:40:45.323Z,8.41
2022-11-06T17:41:45.424Z,8.41
2022-11-06T17:42:45.532Z,8.41
2022-11-06T17:43:45.633Z,8.41
2022-11-06T17:44:45.795Z,8.41
2022-11-06T17:45:46.085Z,8.42
2022-11-06T17:46:46.031Z,8.43
2022-11-06T17:47:46.213Z,8.44
2022-11-06T17:48:46.329Z,8.45
2022-11-06T17:49:46.417Z,8.46
2022-11-06T17:50:46.613Z,8.48
2022-11-06T17:51:46.698Z,8.50
2022-11-06T17:52:46.820Z,8.52
2022-11-06T17:53:46.950Z,8.54
2022-11-06T17:54:47.129Z,8.56
2022-11-06T17:55:47.247Z,8.58
2022-11-06T17:56:47.399Z,8.58
2022-11-06T17:57:47.509Z,8.59
2022-11-06T17:58:47.644Z,8.61
2022-11-06T17:59:47.730Z,8.64
2022-11-06T18:00:47.880Z,8.67
2022-11-06T18:01:48.194Z,8.69
2022-11-06T18:03:01.008Z,8.72
2022-11-06T18:03:49.288Z,8.76
2022-11-06T18:04:48.409Z,8.79
2022-11-06T18:05:48.571Z,8.81
2022-11-06T18:06:48.668Z,8.83
2022-11-06T18:07:48.802Z,8.84
2022-11-06T18:08:48.889Z,8.85
2022-11-06T18:09:49.990Z,8.85
2022-11-06T18:10:49.201Z,8.86
2022-11-06T18:11:49.314Z,8.87
2022-11-06T18:12:49.442Z,8.89
2022-11-06T18:13:49.545Z,8.91
2022-11-06T18:14:49.715Z,8.94
2022-11-06T18:15:49.854Z,8.96
2022-11-06T18:16:49.956Z,8.98
2022-11-06T18:17:50.135Z,9.01
2022-11-06T18:18:51.166Z,9.03
2022-11-06T18:19:50.355Z,9.05
2022-11-06T18:20:50.525Z,9.06
2022-11-06T18:21:50.594Z,9.07
2022-11-06T18:22:50.779Z,9.08
2022-11-06T18:23:50.883Z,9.10
2022-11-06T18:24:51.004Z,9.11
2022-11-06T18:25:51.305Z,9.13
2022-11-06T18:26:51.239Z,9.14
2022-11-06T18:27:51.407Z,9.15
2022-11-06T18:28:51.512Z,9.17
2022-11-06T18:29:51.680Z,9.18
2022-11-06T18:30:51.849Z,9.18
2022-11-06T18:31:51.941Z,9.19
2022-11-06T18:32:52.107Z,9.21
2022-11-06T18:33:52.189Z,9.23
2022-11-06T18:34:52.323Z,9.24
2022-11-06T18:35:52.621Z,9.25
2022-11-06T18:36:52.600Z,9.26
2022-11-06T18:37:52.766Z,9.27
2022-11-06T18:38:52.860Z,9.28
2022-11-06T18:39:53.030Z,9.28
2022-11-06T18:40:53.178Z,9.29
2022-11-06T18:41:53.268Z,9.31
2022-11-06T18:42:53.410Z,9.33
2022-11-06T18:43:53.509Z,9.36
2022-11-06T18:44:53.640Z,9.38
2022-11-06T18:45:53.818Z,9.40
2022-11-06T18:46:53.908Z,9.43
2022-11-06T18:47:54.057Z,9.45
2022-11-06T18:48:54.153Z,9.47
2022-11-06T18:49:54.289Z,9.49
2022-11-06T18:50:54.426Z,9.51
2022-11-06T18:51:54.585Z,9.53
2022-11-06T18:52:58.575Z,9.55
2022-11-06T18:53:54.815Z,9.57
2022-11-06T18:54:59.701Z,9.59
2022-11-06T18:55:56.047Z,9.60
2022-11-06T18:56:55.166Z,9.60
2022-11-06T18:57:55.301Z,9.61
2022-11-06T18:58:55.444Z,9.62
2022-11-06T18:59:55.520Z,9.63
2022-11-06T19:01:01.433Z,9.64
2022-11-06T19:01:57.025Z,9.64
2022-11-06T19:02:56.005Z,9.64
2022-11-06T19:03:56.119Z,9.64
2022-11-06T19:04:56.264Z,9.64
2022-11-06T19:05:56.316Z,9.64
2022-11-06T19:06:56.475Z,9.64
2022-11-06T19:08:00.350Z,9.65
2022-11-06T19:08:56.654Z,9.66
2022-11-06T19:09:56.781Z,9.66
2022-11-06T19:10:56.931Z,9.68
2022-11-06T19:11:57.221Z,9.70
2022-11-06T19:12:59.400Z,9.70
2022-11-06T19:13:57.321Z,9.71
2022-11-06T19:14:57.474Z,9.71
2022-11-06T19:15:57.632Z,9.71
2022-11-06T19:16:57.759Z,9.71
2022-11-06T19:17:57.871Z,9.71
2022-11-06T19:19:58.150Z,9.68
2022-11-06T19:20:58.293Z,9.67
2022-11-06T19:21:58.399Z,9.66
2022-11-06T19:22:58.480Z,9.66
2022-11-06T19:24:03.031Z,9.67
2022-11-06T19:24:59.730Z,9.67
2022-11-06T19:26:10.653Z,9.67
2022-11-06T19:27:00.021Z,9.67
2022-11-06T19:27:59.099Z,9.67
2022-11-06T19:28:59.249Z,9.67
2022-11-06T19:29:59.381Z,9.68
2022-11-06T19:30:59.558Z,9.68
2022-11-06T19:31:59.649Z,9.67
2022-11-06T19:32:59.795Z,9.68
2022-11-06T19:33:59.948Z,9.68
2022-11-06T19:35:00.050Z,9.68
2022-11-06T19:36:00.252Z,9.69
2022-11-06T19:37:00.355Z,9.70
2022-11-06T19:38:00.465Z,9.71
2022-11-06T19:39:00.616Z,9.71
2022-11-06T19:40:05.668Z,9.72
2022-11-06T19:41:01.916Z,9.72
2022-11-06T19:42:00.998Z,9.73
2022-11-06T19:43:01.129Z,9.74
2022-11-06T19:44:01.264Z,9.74
2022-11-06T19:45:01.414Z,9.73
2022-11-06T19:46:01.573Z,9.73
2022-11-06T19:47:01.683Z,9.73
2022-11-06T19:48:01.843Z,9.74
2022-11-06T19:49:01.936Z,9.75
2022-11-06T19:50:02.061Z,9.74
2022-11-06T19:51:02.211Z,9.74
2022-11-06T19:52:43.273Z,9.73
2022-11-06T19:53:03.430Z,9.72
2022-11-06T19:54:02.546Z,9.72
2022-11-06T19:55:26.730Z,9.72
2022-11-06T19:56:03.811Z,9.72
2022-11-06T19:57:28.796Z,9.73
2022-11-06T19:58:04.062Z,9.72
2022-11-06T19:59:03.199Z,9.72
2022-11-06T20:00:08.633Z,9.73
2022-11-06T20:01:04.536Z,9.72
2022-11-06T20:02:03.830Z,9.72
2022-11-06T20:03:03.668Z,9.72
2022-11-06T20:04:03.828Z,9.71
2022-11-06T20:05:03.938Z,9.71
2022-11-06T20:06:07.756Z,9.72
2022-11-06T20:07:04.220Z,9.72
2022-11-06T20:08:04.328Z,9.72
2022-11-06T20:09:04.488Z,9.73
2022-11-06T20:10:04.597Z,9.74
2022-11-06T20:11:04.748Z,9.74
2022-11-06T20:12:04.874Z,9.75
2022-11-06T20:13:05.028Z,9.76
2022-11-06T20:14:05.156Z,9.77
2022-11-06T20:15:05.290Z,9.77
2022-11-06T20:16:05.465Z,9.77
2022-11-06T20:17:05.555Z,9.77
2022-11-06T20:18:05.678Z,9.77
2022-11-06T20:19:05.834Z,9.78
2022-11-06T20:20:05.955Z,9.80
2022-11-06T20:21:06.105Z,9.80
2022-11-06T20:22:06.243Z,9.80
2022-11-06T20:23:06.401Z,9.82
2022-11-06T20:24:06.514Z,9.82
2022-11-06T20:25:06.620Z,9.84
2022-11-06T20:26:07.269Z,9.85
2022-11-06T20:27:11.167Z,9.86
2022-11-06T20:28:07.002Z,9.87
2022-11-06T20:29:07.144Z,9.88
2022-11-06T20:30:07.305Z,9.89
2022-11-06T20:31:07.445Z,9.90
2022-11-06T20:32:07.564Z,9.90
2022-11-06T20:33:07.660Z,9.91
2022-11-06T20:34:07.891Z,9.92
2022-11-06T20:35:07.970Z,9.92
2022-11-06T20:36:08.131Z,9.92
2022-11-06T20:37:08.174Z,9.91
2022-11-06T20:38:08.349Z,9.90
2022-11-06T20:39:08.449Z,9.90
2022-11-06T20:40:08.560Z,9.90
2022-11-06T20:41:08.707Z,9.89
2022-11-06T20:42:08.817Z,9.88
2022-11-06T20:43:08.889Z,9.88
2022-11-06T20:44:09.017Z,9.88
2022-11-06T20:45:09.158Z,9.89
2022-11-06T20:46:09.346Z,9.90
2022-11-06T20:47:09.445Z,9.91
2022-11-06T20:48:09.557Z,9.90
2022-11-06T20:49:09.707Z,9.89
2022-11-06T20:50:09.815Z,9.88
2022-11-06T20:51:09.945Z,9.88
2022-11-06T20:52:14.819Z,9.88
2022-11-06T20:53:11.488Z,9.88
2022-11-06T20:54:10.324Z,9.87
2022-11-06T20:55:10.460Z,9.87
2022-11-06T20:56:10.615Z,9.87
2022-11-06T20:57:10.715Z,9.87
2022-11-06T20:58:10.864Z,9.88
2022-11-06T20:59:11.003Z,9.89
2022-11-06T21:00:11.125Z,9.90
2022-11-06T21:01:11.331Z,9.90
2022-11-06T21:02:11.657Z,9.90
2022-11-06T21:03:11.504Z,9.91
2022-11-06T21:04:11.653Z,9.92
2022-11-06T21:05:11.752Z,9.92
2022-11-06T21:06:11.972Z,9.93
2022-11-06T21:07:12.001Z,9.92
2022-11-06T21:08:12.148Z,9.89
2022-11-06T21:09:12.303Z,9.88
2022-11-06T21:10:12.440Z,9.88
2022-11-06T21:11:12.544Z,9.89
2022-11-06T21:12:12.610Z,9.89
2022-11-06T21:13:13.024Z,9.88
2022-11-06T21:14:12.911Z,9.88
2022-11-06T21:15:13.065Z,9.87
2022-11-06T21:16:13.160Z,9.88
2022-11-06T21:17:13.253Z,9.88
2022-11-06T21:18:13.380Z,9.88
2022-11-06T21:19:13.517Z,9.87
2022-11-06T21:20:13.882Z,9.88
2022-11-06T21:21:13.787Z,9.87
2022-11-06T21:22:13.927Z,9.87
2022-11-06T21:23:14.379Z,9.87
2022-11-06T21:24:14.208Z,9.87
2022-11-06T21:25:14.516Z,9.89
2022-11-06T21:26:14.484Z,9.90
2022-11-06T21:27:14.566Z,9.90
2022-11-06T21:28:14.715Z,9.91
2022-11-06T21:29:14.848Z,9.91
2022-11-06T21:30:15.006Z,9.90
2022-11-06T21:31:15.096Z,9.90